Time;durP1;ratioP1;P1;durP2;ratioP2;P2;SDS_P1;SDS_P2;PMS_P1;PMS_P2;Temp;Humidity;BMP_temperature;BMP_pressure;BME280_temperature;BME280_humidity;BME280_pressure;Samples;Min_cycle;Max_cycle;Signal;HPM_P1;HPM_P2
2023/02/20 00:00:37;;;;;;;4.03;1.27;;;;;;;;;;5015121;28;20601;-59
2023/02/20 00:03:03;;;;;;;3.67;1.35;;;;;;;;;;5014880;28;20192;-60
2023/02/20 00:05:29;;;;;;;2.75;1.27;;;;;;;;;;5014693;28;20597;-60
2023/02/20 00:07:55;;;;;;;4.03;1.30;;;;;;;;;;5015003;28;20176;-61
2023/02/20 00:10:23;;;;;;;6.07;1.42;;;;;;;;;;5015002;28;20235;-60
2023/02/20 00:12:49;;;;;;;4.75;1.40;;;;;;;;;;5015035;28;20186;-59
2023/02/20 00:15:15;;;;;;;4.47;1.52;;;;;;;;;;5014761;28;20595;-60
2023/02/20 00:17:42;;;;;;;5.15;1.52;;;;;;;;;;5014953;28;20517;-60
2023/02/20 00:20:08;;;;;;;5.22;1.52;;;;;;;;;;5014770;28;20201;-60
2023/02/20 00:22:34;;;;;;;3.72;1.42;;;;;;;;;;5014961;28;20171;-62
2023/02/20 00:25:00;;;;;;;6.43;1.40;;;;;;;;;;5014739;28;20174;-62
2023/02/20 00:27:26;;;;;;;5.00;1.48;;;;;;;;;;5014416;28;20187;-60
2023/02/20 00:29:52;;;;;;;3.38;1.45;;;;;;;;;;5014710;28;20185;-61
2023/02/20 00:32:18;;;;;;;5.07;1.27;;;;;;;;;;5014390;28;20257;-60
2023/02/20 00:34:44;;;;;;;2.88;1.10;;;;;;;;;;5014530;28;20201;-60
2023/02/20 00:37:10;;;;;;;3.10;1.30;;;;;;;;;;5014734;28;20170;-61
2023/02/20 00:39:36;;;;;;;4.45;1.35;;;;;;;;;;5014445;28;20497;-61
2023/02/20 00:42:02;;;;;;;4.22;1.30;;;;;;;;;;5014807;28;20170;-59
2023/02/20 00:44:28;;;;;;;6.07;1.55;;;;;;;;;;5014530;28;20167;-60
2023/02/20 00:46:54;;;;;;;5.80;1.50;;;;;;;;;;5014272;28;20171;-59
2023/02/20 00:49:20;;;;;;;2.60;1.30;;;;;;;;;;5014956;28;20178;-60
2023/02/20 00:51:46;;;;;;;2.70;1.33;;;;;;;;;;5014476;28;20478;-61
2023/02/20 00:54:12;;;;;;;4.55;1.50;;;;;;;;;;5014024;28;20572;-58
2023/02/20 00:56:38;;;;;;;3.63;1.85;;;;;;;;;;5014527;28;20316;-60
2023/02/20 00:59:04;;;;;;;2.58;1.67;;;;;;;;;;5014214;28;20212;-61
2023/02/20 01:01:30;;;;;;;4.13;1.70;;;;;;;;;;5014079;28;20170;-61
2023/02/20 01:03:56;;;;;;;4.00;1.92;;;;;;;;;;5014277;28;20194;-59
2023/02/20 01:06:22;;;;;;;3.80;1.92;;;;;;;;;;5014092;28;20180;-59
2023/02/20 01:08:48;;;;;;;3.80;2.08;;;;;;;;;;5014133;28;20179;-59
2023/02/20 01:11:14;;;;;;;2.95;1.90;;;;;;;;;;5014093;28;20163;-62
2023/02/20 01:13:40;;;;;;;3.08;1.80;;;;;;;;;;5013810;28;20178;-61
2023/02/20 01:16:06;;;;;;;5.97;2.05;;;;;;;;;;5013725;28;20276;-60
2023/02/20 01:18:32;;;;;;;4.07;1.75;;;;;;;;;;5013699;28;20583;-61
2023/02/20 01:20:58;;;;;;;6.05;2.15;;;;;;;;;;5013728;28;20174;-61
2023/02/20 01:23:24;;;;;;;4.85;1.80;;;;;;;;;;5013913;28;20181;-61
2023/02/20 01:25:50;;;;;;;6.65;2.28;;;;;;;;;;5013829;28;20178;-61
2023/02/20 01:28:16;;;;;;;3.38;1.70;;;;;;;;;;5013640;28;20604;-61
2023/02/20 01:30:42;;;;;;;3.45;1.67;;;;;;;;;;5014735;28;20170;-61
2023/02/20 01:33:08;;;;;;;7.60;1.80;;;;;;;;;;5015454;28;20177;-60
2023/02/20 01:35:34;;;;;;;5.60;1.85;;;;;;;;;;5015859;28;20601;-60
2023/02/20 01:38:04;;;;;;;4.03;1.45;;;;;;;;;;5015221;28;20604;-61
2023/02/20 01:40:29;;;;;;;4.68;1.67;;;;;;;;;;5015404;28;20231;-61
2023/02/20 01:42:55;;;;;;;5.40;1.77;;;;;;;;;;5014829;28;20166;-60
2023/02/20 01:45:21;;;;;;;2.75;1.65;;;;;;;;;;5015091;28;20174;-59
2023/02/20 01:47:51;;;;;;;4.90;1.65;;;;;;;;;;5015594;28;20209;-61
2023/02/20 01:50:19;;;;;;;3.28;1.77;;;;;;;;;;5014517;28;20171;-60
2023/02/20 01:52:48;;;;;;;7.15;1.83;;;;;;;;;;5013576;28;20230;-60
2023/02/20 01:55:20;;;;;;;2.78;1.65;;;;;;;;;;5013029;28;20292;-62
2023/02/20 01:57:59;;;;;;;4.05;1.80;;;;;;;;;;5013354;28;20205;-61
2023/02/20 02:00:25;;;;;;;3.15;1.95;;;;;;;;;;5013365;28;20545;-61
2023/02/20 02:02:54;;;;;;;5.38;1.60;;;;;;;;;;5013158;28;20178;-60
2023/02/20 02:05:22;;;;;;;3.95;1.80;;;;;;;;;;5013405;28;20239;-60
2023/02/20 02:07:48;;;;;;;4.72;1.70;;;;;;;;;;5012876;28;20170;-61
2023/02/20 02:10:16;;;;;;;3.63;1.60;;;;;;;;;;5013242;28;20182;-60
2023/02/20 02:12:45;;;;;;;3.88;1.50;;;;;;;;;;5012992;28;20634;-58
2023/02/20 02:15:18;;;;;;;7.70;1.73;;;;;;;;;;5013257;28;20205;-59
2023/02/20 02:18:02;;;;;;;2.97;1.50;;;;;;;;;;5013702;28;20167;-60
2023/02/20 02:20:34;;;;;;;3.35;1.65;;;;;;;;;;5012882;28;20267;-59
2023/02/20 02:23:19;;;;;;;3.85;1.40;;;;;;;;;;5013153;28;20177;-59
2023/02/20 02:26:05;;;;;;;3.67;1.40;;;;;;;;;;5013143;28;20227;-60
2023/02/20 02:28:50;;;;;;;3.78;1.70;;;;;;;;;;5012623;28;20169;-57
2023/02/20 02:31:36;;;;;;;5.10;1.73;;;;;;;;;;5013439;28;20185;-59
2023/02/20 02:34:25;;;;;;;5.13;1.70;;;;;;;;;;5013132;28;20242;-59
2023/02/20 02:36:51;;;;;;;4.32;1.80;;;;;;;;;;5012622;28;20195;-61
2023/02/20 02:39:22;;;;;;;2.83;1.50;;;;;;;;;;5012874;28;20166;-61
2023/02/20 02:41:56;;;;;;;6.22;2.13;;;;;;;;;;5012729;28;20203;-61
2023/02/20 02:44:22;;;;;;;3.65;1.80;;;;;;;;;;5012756;28;20170;-60
2023/02/20 02:46:56;;;;;;;3.30;1.33;;;;;;;;;;5013121;28;20550;-58
2023/02/20 02:49:25;;;;;;;2.88;1.50;;;;;;;;;;5012866;28;20238;-60
2023/02/20 02:51:53;;;;;;;3.78;1.95;;;;;;;;;;5012480;28;20223;-59
2023/02/20 02:54:27;;;;;;;7.70;2.15;;;;;;;;;;5012705;28;20208;-58
2023/02/20 02:56:54;;;;;;;4.85;1.83;;;;;;;;;;5012461;28;20146;-59
2023/02/20 02:59:26;;;;;;;4.20;1.95;;;;;;;;;;5012769;28;20174;-61
2023/02/20 03:02:00;;;;;;;5.75;1.98;;;;;;;;;;5012287;28;20234;-58
2023/02/20 03:04:27;;;;;;;3.47;2.33;;;;;;;;;;5012627;28;20179;-60
2023/02/20 03:06:55;;;;;;;4.82;2.40;;;;;;;;;;5012529;28;20178;-58
2023/02/20 03:09:32;;;;;;;4.22;2.10;;;;;;;;;;5012675;28;20174;-60
2023/02/20 03:12:00;;;;;;;4.38;2.45;;;;;;;;;;5012483;28;20177;-60
2023/02/20 03:17:31;;;;;;;3.72;2.40;;;;;;;;;;5012382;28;20170;-61
2023/02/20 03:20:02;;;;;;;5.55;2.33;;;;;;;;;;5013549;28;20177;-60
2023/02/20 03:22:29;;;;;;;4.75;2.35;;;;;;;;;;5015780;28;20162;-61
2023/02/20 03:24:58;;;;;;;5.07;2.28;;;;;;;;;;5015779;28;20181;-61
2023/02/20 03:27:41;;;;;;;4.90;2.42;;;;;;;;;;5015383;28;20627;-61
2023/02/20 03:30:12;;;;;;;3.42;2.60;;;;;;;;;;5015485;28;20203;-59
2023/02/20 03:43:43;;;;;;;5.97;3.28;;;;;;;;;;5016199;28;20235;-58
2023/02/20 03:46:11;;;;;;;5.30;3.10;;;;;;;;;;5015691;28;20166;-56
2023/02/20 03:48:41;;;;;;;9.48;3.20;;;;;;;;;;5015596;28;20268;-61
2023/02/20 03:51:08;;;;;;;4.35;2.92;;;;;;;;;;5015400;28;20212;-61
2023/02/20 03:53:34;;;;;;;9.18;3.35;;;;;;;;;;5014971;28;20162;-61
2023/02/20 03:56:02;;;;;;;5.00;3.00;;;;;;;;;;5014913;28;20582;-60
2023/02/20 03:58:29;;;;;;;6.78;3.25;;;;;;;;;;5014911;28;20178;-61
2023/02/20 04:00:57;;;;;;;4.53;3.35;;;;;;;;;;5015197;28;20162;-61
2023/02/20 04:03:25;;;;;;;7.22;3.53;;;;;;;;;;5014721;28;20235;-61
2023/02/20 04:05:54;;;;;;;6.13;3.08;;;;;;;;;;5014865;28;20174;-61
2023/02/20 04:08:22;;;;;;;6.63;3.83;;;;;;;;;;5015008;28;20181;-61
2023/02/20 04:11:02;;;;;;;5.70;3.55;;;;;;;;;;5014826;28;20174;-61
2023/02/20 04:13:29;;;;;;;7.53;3.45;;;;;;;;;;5015038;28;20286;-61
2023/02/20 04:15:58;;;;;;;7.18;3.60;;;;;;;;;;5014618;28;20651;-60
2023/02/20 04:18:24;;;;;;;4.97;3.55;;;;;;;;;;5014856;28;20600;-59
2023/02/20 04:20:53;;;;;;;5.63;3.63;;;;;;;;;;5014612;28;20596;-60
2023/02/20 04:23:20;;;;;;;6.93;3.67;;;;;;;;;;5014395;28;20607;-61
2023/02/20 04:25:52;;;;;;;5.78;3.70;;;;;;;;;;5014767;28;20189;-60
2023/02/20 04:28:18;;;;;;;9.18;3.90;;;;;;;;;;5014446;28;20223;-60
2023/02/20 04:30:44;;;;;;;6.45;3.75;;;;;;;;;;5014438;28;20186;-61
2023/02/20 04:33:12;;;;;;;8.45;4.72;;;;;;;;;;5014383;28;20170;-61
2023/02/20 04:35:38;;;;;;;10.18;5.05;;;;;;;;;;5014324;28;20193;-61
2023/02/20 04:38:04;;;;;;;5.95;3.63;;;;;;;;;;5014530;28;20167;-61
2023/02/20 04:40:30;;;;;;;7.45;4.07;;;;;;;;;;5014643;28;20162;-61
2023/02/20 04:42:56;;;;;;;7.25;3.65;;;;;;;;;;5014451;28;20249;-61
2023/02/20 04:45:22;;;;;;;5.28;4.00;;;;;;;;;;5014513;28;20267;-61
2023/02/20 04:47:48;;;;;;;8.35;4.50;;;;;;;;;;5015040;28;20193;-61
2023/02/20 04:50:28;;;;;;;6.88;4.15;;;;;;;;;;5014454;28;20170;-62
2023/02/20 04:52:54;;;;;;;5.65;4.18;;;;;;;;;;5014140;28;20181;-61
2023/02/20 04:55:20;;;;;;;7.97;4.13;;;;;;;;;;5014284;28;20680;-60
2023/02/20 04:57:46;;;;;;;5.70;4.10;;;;;;;;;;5014341;28;20163;-61
2023/02/20 05:00:17;;;;;;;6.57;4.60;;;;;;;;;;5014482;28;20231;-61
2023/02/20 05:02:43;;;;;;;7.45;4.18;;;;;;;;;;5013966;28;20192;-62
2023/02/20 05:05:20;;;;;;;6.93;4.07;;;;;;;;;;5014025;28;20162;-62
2023/02/20 05:07:46;;;;;;;6.28;3.95;;;;;;;;;;5014487;28;20174;-61
2023/02/20 05:10:13;;;;;;;7.10;4.25;;;;;;;;;;5014889;28;20192;-61
2023/02/20 05:12:39;;;;;;;7.93;3.95;;;;;;;;;;5015396;28;20167;-61
2023/02/20 05:15:05;;;;;;;6.68;4.40;;;;;;;;;;5016139;28;20656;-59
2023/02/20 05:17:31;;;;;;;6.60;4.25;;;;;;;;;;5016384;28;20229;-60
2023/02/20 05:19:57;;;;;;;6.05;4.20;;;;;;;;;;5016618;28;20593;-58
2023/02/20 05:22:23;;;;;;;5.80;3.38;;;;;;;;;;5017528;28;20620;-58
2023/02/20 05:24:51;;;;;;;8.45;4.45;;;;;;;;;;5014696;28;20612;-61
2023/02/20 05:27:18;;;;;;;7.13;4.55;;;;;;;;;;5014164;28;20174;-60
2023/02/20 05:29:47;;;;;;;7.88;4.63;;;;;;;;;;5013781;28;20181;-60
2023/02/20 05:32:15;;;;;;;7.18;4.57;;;;;;;;;;5014010;28;20184;-58
2023/02/20 05:34:41;;;;;;;7.10;4.78;;;;;;;;;;5013486;28;20666;-59
2023/02/20 05:37:07;;;;;;;6.32;4.40;;;;;;;;;;5013777;28;20167;-60
2023/02/20 05:39:33;;;;;;;5.63;4.05;;;;;;;;;;5013594;28;20246;-59
2023/02/20 05:41:59;;;;;;;7.57;4.07;;;;;;;;;;5013153;28;20186;-59
2023/02/20 05:44:25;;;;;;;7.18;4.63;;;;;;;;;;5013639;28;20541;-60
2023/02/20 05:46:52;;;;;;;8.27;4.50;;;;;;;;;;5013886;28;20166;-60
2023/02/20 05:49:18;;;;;;;9.25;4.80;;;;;;;;;;5013151;28;20541;-61
2023/02/20 05:51:45;;;;;;;6.45;4.10;;;;;;;;;;5013468;28;20196;-59
2023/02/20 05:54:10;;;;;;;6.93;4.45;;;;;;;;;;5013796;28;20166;-58
2023/02/20 05:56:40;;;;;;;12.38;5.45;;;;;;;;;;5013856;28;20643;-56
2023/02/20 05:59:06;;;;;;;7.80;4.70;;;;;;;;;;5013505;28;20170;-61
2023/02/20 06:01:32;;;;;;;7.60;5.00;;;;;;;;;;5013186;28;20177;-61
2023/02/20 06:04:00;;;;;;;10.63;5.30;;;;;;;;;;5013438;28;20165;-61
2023/02/20 06:06:30;;;;;;;8.93;5.45;;;;;;;;;;5013312;28;20188;-59
2023/02/20 06:08:56;;;;;;;8.20;5.05;;;;;;;;;;5013003;28;20604;-61
2023/02/20 06:11:22;;;;;;;9.23;5.60;;;;;;;;;;5013049;28;20166;-59
2023/02/20 06:13:48;;;;;;;9.32;5.28;;;;;;;;;;5013167;28;20170;-60
2023/02/20 06:16:21;;;;;;;11.18;7.00;;;;;;;;;;5013023;28;20189;-61
2023/02/20 06:18:47;;;;;;;7.38;4.97;;;;;;;;;;5013072;28;20223;-58
2023/02/20 06:21:13;;;;;;;11.50;6.50;;;;;;;;;;5012847;28;20162;-57
2023/02/20 06:23:39;;;;;;;9.70;6.10;;;;;;;;;;5012744;28;20222;-59
2023/02/20 06:26:06;;;;;;;9.77;5.97;;;;;;;;;;5013234;28;20257;-58
2023/02/20 06:28:32;;;;;;;12.05;7.03;;;;;;;;;;5013025;28;20178;-58
2023/02/20 06:30:58;;;;;;;9.02;6.20;;;;;;;;;;5013594;28;20213;-59
2023/02/20 06:33:25;;;;;;;12.45;6.70;;;;;;;;;;5013218;28;20186;-58
2023/02/20 06:35:50;;;;;;;10.57;5.90;;;;;;;;;;5012468;28;20654;-60
2023/02/20 06:38:16;;;;;;;11.20;6.57;;;;;;;;;;5012645;28;20249;-60
2023/02/20 06:40:43;;;;;;;11.55;7.13;;;;;;;;;;5012877;28;20170;-60
2023/02/20 06:43:09;;;;;;;8.55;6.07;;;;;;;;;;5012661;28;20240;-59
2023/02/20 06:45:35;;;;;;;10.57;6.40;;;;;;;;;;5012955;28;20174;-60
2023/02/20 06:48:02;;;;;;;11.18;7.10;;;;;;;;;;5012719;28;20182;-61
2023/02/20 06:50:28;;;;;;;10.98;7.38;;;;;;;;;;5012708;28;20174;-60
2023/02/20 06:52:54;;;;;;;8.30;6.28;;;;;;;;;;5012665;28;20258;-59
2023/02/20 06:55:19;;;;;;;10.10;6.68;;;;;;;;;;5012600;28;20288;-61
2023/02/20 06:57:45;;;;;;;10.57;6.68;;;;;;;;;;5012206;28;20249;-60
2023/02/20 07:00:12;;;;;;;8.77;6.40;;;;;;;;;;5012411;28;20174;-61
2023/02/20 07:02:38;;;;;;;9.40;7.35;;;;;;;;;;5012425;28;20186;-59
2023/02/20 07:05:04;;;;;;;9.98;6.88;;;;;;;;;;5012392;28;20662;-61
2023/02/20 07:07:30;;;;;;;9.68;7.22;;;;;;;;;;5013512;28;20194;-60
2023/02/20 07:09:58;;;;;;;10.73;7.43;;;;;;;;;;5012582;28;20188;-59
2023/02/20 07:12:24;;;;;;;11.32;8.00;;;;;;;;;;5013375;28;20189;-61
2023/02/20 07:14:50;;;;;;;10.50;7.57;;;;;;;;;;5012519;28;20603;-60
2023/02/20 07:17:16;;;;;;;11.10;7.55;;;;;;;;;;5013160;28;20169;-60
2023/02/20 07:19:42;;;;;;;13.05;7.68;;;;;;;;;;5012879;28;20173;-60
2023/02/20 07:22:08;;;;;;;10.77;7.35;;;;;;;;;;5012623;28;20286;-61
2023/02/20 07:24:35;;;;;;;15.23;7.97;;;;;;;;;;5012681;28;20173;-60
2023/02/20 07:27:02;;;;;;;12.27;7.65;;;;;;;;;;5012844;28;20167;-61
2023/02/20 07:29:28;;;;;;;9.70;7.82;;;;;;;;;;5013075;28;20158;-60
2023/02/20 07:31:53;;;;;;;11.43;7.53;;;;;;;;;;5013874;28;20171;-60
2023/02/20 07:34:19;;;;;;;10.55;7.57;;;;;;;;;;5013317;28;20165;-62
2023/02/20 07:36:45;;;;;;;12.80;7.90;;;;;;;;;;5012892;28;20195;-60
2023/02/20 07:39:12;;;;;;;12.23;8.25;;;;;;;;;;5013250;28;20205;-61
2023/02/20 07:41:38;;;;;;;12.43;7.88;;;;;;;;;;5013355;28;20167;-61
2023/02/20 07:44:04;;;;;;;12.70;8.50;;;;;;;;;;5012538;28;20659;-60
2023/02/20 07:46:32;;;;;;;19.45;9.13;;;;;;;;;;5011930;28;20173;-60
2023/02/20 07:48:59;;;;;;;9.77;7.28;;;;;;;;;;5011570;28;20665;-60
2023/02/20 07:51:26;;;;;;;12.07;7.82;;;;;;;;;;5011918;28;20198;-61
2023/02/20 07:53:53;;;;;;;12.98;7.63;;;;;;;;;;5011653;28;20170;-58
2023/02/20 07:56:20;;;;;;;11.68;7.70;;;;;;;;;;5011778;28;20207;-56
2023/02/20 07:58:46;;;;;;;12.63;7.43;;;;;;;;;;5012135;28;20554;-60
2023/02/20 08:01:12;;;;;;;11.80;7.57;;;;;;;;;;5011530;28;20612;-61
2023/02/20 08:03:38;;;;;;;9.55;7.85;;;;;;;;;;5011575;28;20186;-59
2023/02/20 08:06:04;;;;;;;12.43;7.78;;;;;;;;;;5012952;28;20185;-60
2023/02/20 08:08:30;;;;;;;11.20;7.75;;;;;;;;;;5015449;28;20181;-60
2023/02/20 08:10:56;;;;;;;10.93;7.65;;;;;;;;;;5015650;28;20204;-61
2023/02/20 08:13:22;;;;;;;12.25;7.97;;;;;;;;;;5015156;28;20178;-60
2023/02/20 08:15:48;;;;;;;13.35;8.75;;;;;;;;;;5015161;28;20516;-58
2023/02/20 08:18:14;;;;;;;11.55;6.95;;;;;;;;;;5015602;28;20219;-58
2023/02/20 08:20:40;;;;;;;12.73;7.93;;;;;;;;;;5015531;28;20166;-59
2023/02/20 08:23:15;;;;;;;11.43;7.80;;;;;;;;;;5015837;28;20213;-59
2023/02/20 08:25:41;;;;;;;9.43;8.20;;;;;;;;;;5016025;28;20257;-60
2023/02/20 08:28:07;;;;;;;11.25;8.43;;;;;;;;;;5016028;28;20194;-59
2023/02/20 08:30:33;;;;;;;14.80;7.88;;;;;;;;;;5015843;28;20170;-59
2023/02/20 08:33:01;;;;;;;13.57;8.88;;;;;;;;;;5015313;28;20174;-59
2023/02/20 08:35:27;;;;;;;11.50;7.82;;;;;;;;;;5015228;28;20194;-59
2023/02/20 08:37:53;;;;;;;12.15;8.15;;;;;;;;;;5015770;28;20318;-59
2023/02/20 08:40:19;;;;;;;10.75;7.22;;;;;;;;;;5015559;28;20174;-61
2023/02/20 08:42:45;;;;;;;11.80;8.23;;;;;;;;;;5016879;28;20162;-59
2023/02/20 08:45:11;;;;;;;11.40;8.20;;;;;;;;;;5016702;28;20175;-61
2023/02/20 08:47:37;;;;;;;11.77;8.10;;;;;;;;;;5017877;28;20174;-60
2023/02/20 08:50:03;;;;;;;13.27;8.48;;;;;;;;;;5016918;28;20174;-61
2023/02/20 08:52:29;;;;;;;9.98;7.53;;;;;;;;;;5017848;28;20217;-59
2023/02/20 08:54:55;;;;;;;23.65;9.48;;;;;;;;;;5015800;28;20241;-59
2023/02/20 08:57:21;;;;;;;12.93;8.90;;;;;;;;;;5014639;28;20220;-62
2023/02/20 08:59:47;;;;;;;12.45;8.85;;;;;;;;;;5014464;28;20234;-59
2023/02/20 09:02:17;;;;;;;12.98;8.57;;;;;;;;;;5014732;28;20182;-63
2023/02/20 09:04:44;;;;;;;13.68;8.57;;;;;;;;;;5013920;28;20665;-61
2023/02/20 09:07:10;;;;;;;12.77;8.00;;;;;;;;;;5014312;28;20227;-62
2023/02/20 09:09:36;;;;;;;12.93;8.15;;;;;;;;;;5014259;28;20307;-62
2023/02/20 09:12:02;;;;;;;14.20;7.97;;;;;;;;;;5014114;28;20568;-61
2023/02/20 09:14:28;;;;;;;16.88;9.57;;;;;;;;;;5013831;28;20596;-62
2023/02/20 09:16:54;;;;;;;15.68;8.82;;;;;;;;;;5013179;28;20170;-59
2023/02/20 09:19:20;;;;;;;14.65;9.23;;;;;;;;;;5013391;28;20267;-61
2023/02/20 09:21:47;;;;;;;13.68;9.48;;;;;;;;;;5013818;28;20177;-58
2023/02/20 09:24:13;;;;;;;14.07;8.95;;;;;;;;;;5013644;28;20219;-62
2023/02/20 09:26:39;;;;;;;14.30;9.27;;;;;;;;;;5013995;28;20174;-62
2023/02/20 09:29:05;;;;;;;12.40;8.63;;;;;;;;;;5013647;28;20247;-61
2023/02/20 09:31:31;;;;;;;14.38;9.55;;;;;;;;;;5013729;28;20169;-61
2023/02/20 09:33:57;;;;;;;17.50;9.52;;;;;;;;;;5014036;28;20174;-61
2023/02/20 09:36:23;;;;;;;15.48;9.23;;;;;;;;;;5013529;28;20212;-61
2023/02/20 09:38:49;;;;;;;15.23;9.25;;;;;;;;;;5013850;28;20257;-61
2023/02/20 09:41:22;;;;;;;14.18;8.57;;;;;;;;;;5013449;28;20166;-61
2023/02/20 09:43:57;;;;;;;15.13;9.40;;;;;;;;;;5013646;28;20151;-61
2023/02/20 09:46:23;;;;;;;13.48;9.15;;;;;;;;;;5013491;28;20158;-61
2023/02/20 09:48:49;;;;;;;26.63;11.80;;;;;;;;;;5013088;28;20174;-61
2023/02/20 09:51:17;;;;;;;28.25;11.48;;;;;;;;;;5013284;28;20185;-61
2023/02/20 09:54:09;;;;;;;24.58;11.38;;;;;;;;;;5013750;28;20272;-62
2023/02/20 09:56:41;;;;;;;16.30;10.00;;;;;;;;;;5016081;28;20713;-60
2023/02/20 09:59:13;;;;;;;16.27;10.13;;;;;;;;;;5013343;28;20166;-61
2023/02/20 10:01:41;;;;;;;18.02;10.43;;;;;;;;;;5012755;28;20195;-61
2023/02/20 10:04:13;;;;;;;18.05;9.82;;;;;;;;;;5013289;28;20158;-60
2023/02/20 10:06:39;;;;;;;17.33;10.65;;;;;;;;;;5013147;28;20217;-59
2023/02/20 10:09:06;;;;;;;17.23;10.60;;;;;;;;;;5013262;28;20174;-60
2023/02/20 10:11:50;;;;;;;16.80;9.95;;;;;;;;;;5013029;28;20620;-61
2023/02/20 10:14:35;;;;;;;19.45;10.88;;;;;;;;;;5013347;28;20185;-58
2023/02/20 10:17:09;;;;;;;16.48;10.30;;;;;;;;;;5012895;28;20322;-60
2023/02/20 10:19:47;;;;;;;17.02;9.45;;;;;;;;;;5013332;28;20486;-58
2023/02/20 10:22:19;;;;;;;15.70;10.27;;;;;;;;;;5013660;28;20327;-59
2023/02/20 10:25:02;;;;;;;15.68;9.13;;;;;;;;;;5013255;28;20150;-59
2023/02/20 10:27:46;;;;;;;24.85;10.43;;;;;;;;;;5013298;28;20577;-58
2023/02/20 10:30:14;;;;;;;15.77;10.20;;;;;;;;;;5012718;28;20257;-59
2023/02/20 10:32:47;;;;;;;14.20;8.73;;;;;;;;;;5012618;28;20182;-59
2023/02/20 10:35:34;;;;;;;14.90;8.98;;;;;;;;;;5012885;28;20207;-61
2023/02/20 10:38:03;;;;;;;13.23;9.23;;;;;;;;;;5012171;28;20506;-60
2023/02/20 10:40:38;;;;;;;14.18;8.63;;;;;;;;;;5012533;28;20616;-61
2023/02/20 10:43:10;;;;;;;15.07;8.65;;;;;;;;;;5012372;28;20501;-60
2023/02/20 10:45:39;;;;;;;15.00;8.70;;;;;;;;;;5012746;28;20174;-59
2023/02/20 10:48:06;;;;;;;12.38;8.10;;;;;;;;;;5012642;28;20253;-61
2023/02/20 10:50:35;;;;;;;14.48;8.40;;;;;;;;;;5012518;28;20181;-61
2023/02/20 10:53:04;;;;;;;17.23;8.20;;;;;;;;;;5012057;28;20704;-61
2023/02/20 10:56:03;;;;;;;13.75;7.10;;;;;;;;;;5012406;28;20299;-62
2023/02/20 10:58:33;;;;;;;13.73;8.48;;;;;;;;;;5093579;28;20231;-61
2023/02/20 11:01:00;;;;;;;14.05;7.97;;;;;;;;;;5093231;28;20594;-61
2023/02/20 11:03:48;;;;;;;16.58;8.32;;;;;;;;;;5093218;28;20179;-60
2023/02/20 11:06:16;;;;;;;11.45;7.00;;;;;;;;;;5083133;28;20221;-61
2023/02/20 11:08:43;;;;;;;10.65;5.95;;;;;;;;;;5093435;28;20266;-58
2023/02/20 11:11:35;;;;;;;9.95;6.60;;;;;;;;;;5093304;28;20602;-61
2023/02/20 11:14:08;;;;;;;10.13;6.35;;;;;;;;;;5089784;28;20183;-61
2023/02/20 11:16:54;;;;;;;11.77;6.18;;;;;;;;;;5093106;28;20188;-61
2023/02/20 11:19:25;;;;;;;10.55;5.47;;;;;;;;;;5093076;28;20636;-61
2023/02/20 11:21:51;;;;;;;13.05;5.97;;;;;;;;;;5093145;28;20629;-61
2023/02/20 11:24:19;;;;;;;11.80;5.22;;;;;;;;;;5093283;28;20168;-62
2023/02/20 11:26:45;;;;;;;8.32;4.88;;;;;;;;;;5093159;28;20244;-62
2023/02/20 11:29:15;;;;;;;9.02;4.20;;;;;;;;;;5093974;28;20262;-61
2023/02/20 11:31:42;;;;;;;7.88;4.22;;;;;;;;;;5093165;28;20613;-60
2023/02/20 11:34:15;;;;;;;8.57;4.40;;;;;;;;;;5048727;28;20507;-59
2023/02/20 11:36:49;;;;;;;9.77;4.07;;;;;;;;;;5011989;28;20202;-59
2023/02/20 11:39:19;;;;;;;12.52;4.40;;;;;;;;;;5011674;28;20154;-61
2023/02/20 11:41:45;;;;;;;6.43;4.22;;;;;;;;;;5014888;28;20158;-62
2023/02/20 11:44:12;;;;;;;7.82;3.65;;;;;;;;;;5015407;28;20418;-61
2023/02/20 11:46:38;;;;;;;8.70;3.72;;;;;;;;;;5015230;28;20170;-60
2023/02/20 11:49:11;;;;;;;7.32;3.50;;;;;;;;;;5015255;28;20166;-61
2023/02/20 11:51:41;;;;;;;8.45;3.65;;;;;;;;;;5015295;28;20177;-59
2023/02/20 11:54:08;;;;;;;8.30;3.30;;;;;;;;;;5014905;28;20178;-61
2023/02/20 11:56:34;;;;;;;8.40;3.30;;;;;;;;;;5014754;28;20204;-61
2023/02/20 11:59:24;;;;;;;8.43;3.35;;;;;;;;;;5016083;28;20262;-62
2023/02/20 12:01:52;;;;;;;11.38;3.63;;;;;;;;;;5014622;28;20644;-61
2023/02/20 12:04:20;;;;;;;6.22;3.13;;;;;;;;;;5015148;28;20284;-61
2023/02/20 12:06:46;;;;;;;7.90;3.10;;;;;;;;;;5015183;28;20205;-60
2023/02/20 12:09:20;;;;;;;8.20;3.25;;;;;;;;;;5015632;28;20202;-60
2023/02/20 12:11:46;;;;;;;7.70;2.83;;;;;;;;;;5014870;28;20174;-61
2023/02/20 12:14:14;;;;;;;10.60;3.65;;;;;;;;;;5014915;28;20181;-61
2023/02/20 12:16:49;;;;;;;8.68;3.40;;;;;;;;;;5014919;28;20255;-60
2023/02/20 12:19:15;;;;;;;9.13;3.70;;;;;;;;;;5014925;28;20177;-61
2023/02/20 12:21:48;;;;;;;12.82;3.63;;;;;;;;;;5014864;28;20172;-60
2023/02/20 12:24:35;;;;;;;7.65;3.33;;;;;;;;;;5014757;28;20150;-61
2023/02/20 12:27:03;;;;;;;12.88;3.65;;;;;;;;;;5014489;28;20147;-61
2023/02/20 12:29:47;;;;;;;12.23;3.55;;;;;;;;;;5015104;28;20608;-61
2023/02/20 12:32:28;;;;;;;10.93;3.50;;;;;;;;;;5014580;28;20193;-60
2023/02/20 12:34:54;;;;;;;15.10;3.65;;;;;;;;;;5014529;28;20205;-61
2023/02/20 12:37:20;;;;;;;10.93;3.42;;;;;;;;;;5014526;28;20163;-62
2023/02/20 12:39:54;;;;;;;10.57;3.70;;;;;;;;;;5014762;28;20162;-61
2023/02/20 12:42:26;;;;;;;11.13;3.55;;;;;;;;;;5014395;28;20435;-60
2023/02/20 12:45:15;;;;;;;10.57;3.60;;;;;;;;;;5014796;28;20174;-60
2023/02/20 12:47:43;;;;;;;9.38;2.85;;;;;;;;;;5025209;28;20515;-59
2023/02/20 12:50:29;;;;;;;13.90;4.00;;;;;;;;;;5014541;28;20534;-60
2023/02/20 12:52:55;;;;;;;12.38;3.25;;;;;;;;;;5014296;28;20170;-61
2023/02/20 12:55:26;;;;;;;8.50;3.45;;;;;;;;;;5014608;28;20285;-62
2023/02/20 12:57:58;;;;;;;15.68;4.30;;;;;;;;;;5014958;28;20162;-60
2023/02/20 13:01:00;;;;;;;11.68;3.53;;;;;;;;;;5014864;28;20162;-61
2023/02/20 13:03:39;;;;;;;10.30;4.18;;;;;;;;;;5095445;28;20198;-62
2023/02/20 13:06:06;;;;;;;12.68;4.03;;;;;;;;;;5095649;28;20645;-60
2023/02/20 13:08:33;;;;;;;13.23;3.42;;;;;;;;;;5095286;28;20195;-62
2023/02/20 13:11:01;;;;;;;12.70;3.90;;;;;;;;;;5095147;28;20243;-61
2023/02/20 13:13:31;;;;;;;10.05;3.25;;;;;;;;;;5095255;28;20172;-62
2023/02/20 13:16:12;;;;;;;14.20;3.78;;;;;;;;;;5095499;28;20187;-60
2023/02/20 13:19:01;;;;;;;12.43;3.67;;;;;;;;;;5095479;28;20172;-62
2023/02/20 13:21:30;;;;;;;8.77;3.15;;;;;;;;;;5058689;28;20218;-62
2023/02/20 13:24:14;;;;;;;8.85;3.70;;;;;;;;;;5095140;28;20275;-61
2023/02/20 13:26:44;;;;;;;11.82;3.40;;;;;;;;;;5095293;28;20605;-60
2023/02/20 13:29:12;;;;;;;10.45;3.20;;;;;;;;;;5095184;28;20274;-62
2023/02/20 13:31:38;;;;;;;9.65;3.65;;;;;;;;;;5095433;28;20267;-62
2023/02/20 13:34:04;;;;;;;10.68;3.50;;;;;;;;;;5094906;28;20636;-63
2023/02/20 13:36:30;;;;;;;11.30;3.85;;;;;;;;;;5082330;28;20648;-60
2023/02/20 13:39:15;;;;;;;11.82;3.63;;;;;;;;;;5013440;28;20166;-62
2023/02/20 13:41:56;;;;;;;14.02;3.92;;;;;;;;;;5013553;28;20208;-63
2023/02/20 13:44:42;;;;;;;12.20;3.30;;;;;;;;;;5013892;28;20581;-61
2023/02/20 13:47:11;;;;;;;10.07;3.65;;;;;;;;;;5013470;28;20177;-61
2023/02/20 13:49:50;;;;;;;11.18;3.70;;;;;;;;;;5013855;28;20186;-61
2023/02/20 13:52:34;;;;;;;9.38;3.40;;;;;;;;;;5013761;28;20611;-60
2023/02/20 13:55:09;;;;;;;8.07;3.60;;;;;;;;;;5013738;28;20271;-60
2023/02/20 13:57:43;;;;;;;9.73;4.00;;;;;;;;;;5013621;28;20166;-60
2023/02/20 14:00:15;;;;;;;13.57;4.13;;;;;;;;;;5013760;28;20193;-60
2023/02/20 14:02:41;;;;;;;8.45;4.18;;;;;;;;;;5013586;28;20214;-61
2023/02/20 14:05:07;;;;;;;11.15;4.03;;;;;;;;;;5012980;28;20175;-59
2023/02/20 14:07:39;;;;;;;14.02;3.70;;;;;;;;;;5013576;28;20468;-58
2023/02/20 14:10:05;;;;;;;14.55;4.47;;;;;;;;;;5013488;28;20174;-59
2023/02/20 14:12:32;;;;;;;7.97;3.03;;;;;;;;;;5013702;28;20189;-58
2023/02/20 14:14:58;;;;;;;9.45;3.70;;;;;;;;;;5013117;28;20609;-61
2023/02/20 14:17:25;;;;;;;15.10;4.13;;;;;;;;;;5012868;28;20170;-62
2023/02/20 14:19:55;;;;;;;13.40;4.35;;;;;;;;;;5013178;28;20549;-61
2023/02/20 14:22:21;;;;;;;7.95;3.90;;;;;;;;;;5013236;28;20170;-59
2023/02/20 14:25:18;;;;;;;8.77;3.25;;;;;;;;;;5012993;28;20166;-61
2023/02/20 14:27:44;;;;;;;9.57;3.50;;;;;;;;;;5016960;28;20162;-62
2023/02/20 14:30:13;;;;;;;12.40;3.47;;;;;;;;;;5017607;28;20169;-62
2023/02/20 14:32:44;;;;;;;8.63;3.58;;;;;;;;;;5018329;28;20199;-61
2023/02/20 14:35:15;;;;;;;8.05;3.70;;;;;;;;;;5016062;28;20186;-62
2023/02/20 14:37:49;;;;;;;14.98;4.43;;;;;;;;;;5016449;28;20154;-61
2023/02/20 14:40:15;;;;;;;15.02;4.78;;;;;;;;;;5015800;28;20158;-62
2023/02/20 14:42:43;;;;;;;8.63;3.40;;;;;;;;;;5016468;28;20173;-59
2023/02/20 14:45:14;;;;;;;10.38;3.70;;;;;;;;;;5014193;28;20174;-61
2023/02/20 14:47:49;;;;;;;8.77;3.42;;;;;;;;;;5013139;28;20143;-61
2023/02/20 14:50:18;;;;;;;10.82;3.85;;;;;;;;;;5014098;28;20182;-60
2023/02/20 14:52:44;;;;;;;9.63;3.45;;;;;;;;;;5013322;28;20193;-61
2023/02/20 14:55:15;;;;;;;7.07;3.40;;;;;;;;;;5013106;28;20221;-61
2023/02/20 14:57:41;;;;;;;9.43;3.20;;;;;;;;;;5012871;28;20154;-61
2023/02/20 15:00:09;;;;;;;13.35;4.43;;;;;;;;;;5013128;28;20167;-60
2023/02/20 15:02:36;;;;;;;9.90;3.92;;;;;;;;;;5013118;28;20193;-62